createdAt,value
2023-05-01T00:00:22.312Z,8.30
2023-05-01T00:02:54.596Z,8.20
2023-05-01T00:05:22.877Z,8.20
2023-05-01T00:07:50.951Z,8.20
2023-05-01T00:10:23.418Z,8.30
2023-05-01T00:12:51.909Z,8.30
2023-05-01T00:15:20.143Z,8.10
2023-05-01T00:17:48.981Z,8.00
2023-05-01T00:20:17.204Z,8.00
2023-05-01T00:22:45.577Z,8.10
2023-05-01T00:25:13.832Z,8.10
2023-05-01T00:27:43.404Z,8.10
2023-05-01T00:30:12.431Z,8.00
2023-05-01T00:32:40.701Z,8.10
2023-05-01T00:35:12.284Z,8.00
2023-05-01T00:37:40.500Z,8.00
2023-05-01T00:40:09.882Z,8.00
2023-05-01T00:42:39.568Z,7.90
2023-05-01T00:45:10.450Z,8.00
2023-05-01T00:47:39.234Z,8.00
2023-05-01T00:50:08.838Z,8.20
2023-05-01T00:52:37.293Z,8.10
2023-05-01T00:55:06.254Z,8.00
2023-05-01T00:57:34.962Z,8.10
2023-05-01T01:00:04.110Z,8.10
2023-05-01T01:02:37.354Z,8.00
2023-05-01T01:05:06.259Z,7.90
2023-05-01T01:07:42.047Z,7.70
2023-05-01T01:10:19.368Z,7.70
2023-05-01T01:12:54.476Z,7.80
2023-05-01T01:15:30.154Z,7.60
2023-05-01T01:18:09.334Z,7.60
2023-05-01T01:20:50.490Z,7.70
2023-05-01T01:23:43.092Z,7.60
2023-05-01T01:26:29.344Z,7.60
2023-05-01T01:29:09.853Z,7.50
2023-05-01T01:31:47.967Z,7.50
2023-05-01T01:34:22.147Z,7.50
2023-05-01T01:36:57.143Z,7.40
2023-05-01T01:39:30.806Z,7.40
2023-05-01T01:42:01.371Z,7.40
2023-05-01T01:44:35.669Z,7.50
2023-05-01T01:47:08.018Z,7.50
2023-05-01T01:49:42.128Z,7.50
2023-05-01T01:52:14.176Z,7.50
2023-05-01T01:54:46.377Z,7.50
2023-05-01T01:57:18.060Z,7.60
2023-05-01T01:59:49.599Z,7.70
2023-05-01T02:02:20.997Z,7.80
2023-05-01T02:04:52.380Z,7.80
2023-05-01T02:07:21.725Z,7.70
2023-05-01T02:09:52.705Z,7.70
2023-05-01T02:12:22.608Z,7.60
2023-05-01T02:14:52.760Z,7.50
2023-05-01T02:17:22.232Z,7.30
2023-05-01T02:19:55.278Z,7.40
2023-05-01T02:22:25.748Z,7.40
2023-05-01T02:24:55.519Z,7.30
2023-05-01T02:27:29.537Z,7.30
2023-05-01T02:29:57.880Z,7.30
2023-05-01T02:32:28.447Z,7.20
2023-05-01T02:34:59.906Z,7.20
2023-05-01T02:37:30.307Z,7.30
2023-05-01T02:39:59.141Z,7.20
2023-05-01T02:42:28.393Z,7.30
2023-05-01T02:44:59.417Z,7.30
2023-05-01T02:47:29.610Z,7.30
2023-05-01T02:50:01.794Z,7.40
2023-05-01T02:52:30.695Z,7.30
2023-05-01T02:55:16.722Z,7.10
2023-05-01T02:57:44.878Z,7.20
2023-05-01T03:00:14.328Z,7.20
2023-05-01T03:02:42.926Z,7.20
2023-05-01T03:05:12.540Z,7.30
2023-05-01T03:07:40.898Z,7.30
2023-05-01T03:10:09.396Z,7.20
2023-05-01T03:12:37.521Z,7.10
2023-05-01T03:15:06.303Z,7.10
2023-05-01T03:17:34.749Z,7.00
2023-05-01T03:20:06.196Z,6.90
2023-05-01T03:22:36.089Z,6.70
2023-05-01T03:25:05.305Z,6.70
2023-05-01T03:27:33.990Z,6.80
2023-05-01T03:30:02.219Z,6.60
2023-05-01T03:32:33.515Z,6.40
2023-05-01T03:35:02.804Z,6.50
2023-05-01T03:37:31.081Z,6.50
2023-05-01T03:40:01.180Z,6.60
2023-05-01T03:42:47.817Z,6.60
2023-05-01T03:45:21.421Z,6.60
2023-05-01T03:47:49.541Z,6.60
2023-05-01T03:50:18.572Z,6.60
2023-05-01T03:52:49.583Z,6.60
2023-05-01T03:55:19.218Z,6.60
2023-05-01T03:57:48.619Z,6.70
2023-05-01T04:00:18.201Z,6.80
2023-05-01T04:02:48.711Z,6.80
2023-05-01T04:05:22.107Z,6.90
2023-05-01T04:07:57.180Z,7.00
2023-05-01T04:10:26.663Z,6.90
2023-05-01T04:12:59.864Z,6.70
2023-05-01T04:15:28.264Z,6.60
2023-05-01T04:17:57.154Z,6.60
2023-05-01T04:20:25.593Z,6.60
2023-05-01T04:22:55.132Z,6.70
2023-05-01T04:25:23.263Z,6.60
2023-05-01T04:27:55.728Z,6.60
2023-05-01T04:30:23.812Z,6.60
2023-05-01T04:32:52.124Z,6.60
2023-05-01T04:35:23.775Z,6.70
2023-05-01T04:37:52.138Z,6.80
2023-05-01T04:40:20.433Z,6.80
2023-05-01T04:42:48.691Z,6.90
2023-05-01T04:45:18.401Z,7.00
2023-05-01T04:47:46.991Z,7.00
2023-05-01T04:50:15.076Z,7.10
2023-05-01T04:52:43.397Z,7.00
2023-05-01T04:55:11.826Z,7.20
2023-05-01T04:57:48.579Z,7.30
2023-05-01T05:00:19.038Z,7.40
2023-05-01T05:02:54.200Z,7.40
2023-05-01T05:05:22.673Z,7.40
2023-05-01T05:07:51.562Z,7.50
2023-05-01T05:10:35.791Z,7.70
2023-05-01T05:13:29.014Z,7.70
2023-05-01T05:16:04.684Z,7.70
2023-05-01T05:18:33.532Z,7.70
2023-05-01T05:21:04.932Z,7.70
2023-05-01T05:23:33.629Z,7.70
2023-05-01T05:26:02.834Z,7.80
2023-05-01T05:28:32.659Z,7.90
2023-05-01T05:31:04.077Z,8.00
2023-05-01T05:33:33.294Z,8.00
2023-05-01T05:36:01.805Z,8.20
2023-05-01T05:38:35.151Z,8.40
2023-05-01T05:41:05.153Z,8.60
2023-05-01T05:43:33.648Z,8.80
2023-05-01T05:46:03.296Z,9.00
2023-05-01T05:48:34.092Z,9.10
2023-05-01T05:51:02.266Z,9.30
2023-05-01T05:53:30.613Z,9.50
2023-05-01T05:55:58.745Z,9.70
2023-05-01T05:58:27.192Z,9.90
2023-05-01T06:00:55.890Z,10.10
2023-05-01T06:03:25.630Z,10.10
2023-05-01T06:05:56.515Z,10.30
2023-05-01T06:08:24.743Z,10.40
2023-05-01T06:10:52.951Z,10.70
2023-05-01T06:13:21.049Z,10.80
2023-05-01T06:15:50.797Z,11.00
2023-05-01T06:18:19.266Z,11.00
2023-05-01T06:20:48.909Z,11.20
2023-05-01T06:23:19.143Z,11.40
2023-05-01T06:26:11.908Z,11.40
2023-05-01T06:28:40.591Z,11.50
2023-05-01T06:31:08.799Z,11.60
2023-05-01T06:33:41.787Z,11.50
2023-05-01T06:36:22.169Z,11.50
2023-05-01T06:38:50.245Z,11.60
2023-05-01T06:41:18.444Z,11.80
2023-05-01T06:43:47.031Z,12.00
2023-05-01T06:46:17.235Z,12.10
2023-05-01T06:48:45.403Z,12.20
2023-05-01T06:51:16.141Z,12.30
2023-05-01T06:53:45.684Z,12.40
2023-05-01T06:56:13.870Z,12.80
2023-05-01T06:58:41.960Z,12.90
2023-05-01T07:01:10.127Z,12.80
2023-05-01T07:03:38.535Z,13.00
2023-05-01T07:06:06.886Z,13.20
2023-05-01T07:08:34.936Z,13.30
2023-05-01T07:11:04.523Z,13.50
2023-05-01T07:13:32.867Z,13.70
2023-05-01T07:16:01.604Z,14.00
2023-05-01T07:18:29.790Z,14.30
2023-05-01T07:20:57.861Z,14.60
2023-05-01T07:23:25.889Z,14.80
2023-05-01T07:25:54.031Z,15.00
2023-05-01T07:28:23.718Z,15.10
2023-05-01T07:30:51.968Z,15.20
2023-05-01T07:33:20.282Z,15.10
2023-05-01T07:35:48.628Z,15.40
2023-05-01T07:38:17.915Z,15.40
2023-05-01T07:40:46.645Z,15.40
2023-05-01T07:43:14.842Z,15.40
2023-05-01T07:45:55.299Z,15.50
2023-05-01T07:48:23.390Z,15.50
2023-05-01T07:50:53.997Z,15.70
2023-05-01T07:53:22.562Z,16.00
2023-05-01T07:55:50.937Z,16.10
2023-05-01T07:58:19.209Z,16.30
2023-05-01T08:00:48.795Z,16.50
2023-05-01T08:03:17.252Z,16.50
2023-05-01T08:05:45.698Z,16.60
2023-05-01T08:08:19.994Z,16.60
2023-05-01T08:10:48.372Z,16.50
2023-05-01T08:13:17.254Z,16.60
2023-05-01T08:15:48.662Z,16.60
2023-05-01T08:18:20.411Z,16.60
2023-05-01T08:20:49.166Z,16.70
2023-05-01T08:23:21.370Z,17.30
2023-05-01T08:25:51.602Z,17.60
2023-05-01T08:28:21.361Z,18.00
2023-05-01T08:30:51.051Z,18.30
2023-05-01T08:33:19.664Z,18.30
2023-05-01T08:35:49.967Z,18.30
2023-05-01T08:38:18.274Z,18.70
2023-05-01T08:40:53.380Z,18.80
2023-05-01T08:43:22.453Z,18.90
2023-05-01T08:45:54.324Z,19.10
2023-05-01T08:48:24.148Z,19.40
2023-05-01T08:50:55.574Z,19.50
2023-05-01T08:53:25.108Z,19.60
2023-05-01T08:55:54.902Z,19.70
2023-05-01T08:58:27.033Z,19.90
2023-05-01T09:00:58.270Z,20.20
2023-05-01T09:03:28.286Z,20.40
2023-05-01T09:05:57.243Z,20.40
2023-05-01T09:08:25.365Z,20.30
2023-05-01T09:10:55.351Z,20.30
2023-05-01T09:13:23.404Z,20.40
2023-05-01T09:15:51.804Z,20.30
2023-05-01T09:18:21.361Z,20.20
2023-05-01T09:20:49.752Z,20.00
2023-05-01T09:23:18.181Z,20.10
2023-05-01T09:25:46.842Z,20.50
2023-05-01T09:28:14.952Z,20.90
2023-05-01T09:30:43.558Z,21.20
2023-05-01T09:33:13.110Z,21.00
2023-05-01T09:35:53.114Z,21.00
2023-05-01T09:38:22.869Z,21.30
2023-05-01T09:40:51.571Z,21.20
2023-05-01T09:43:27.738Z,21.10
2023-05-01T09:46:03.723Z,20.90
2023-05-01T09:48:34.831Z,20.80
2023-05-01T09:51:21.794Z,21.00
2023-05-01T09:53:50.404Z,21.00
2023-05-01T09:56:18.802Z,20.90
2023-05-01T09:58:47.567Z,21.20
2023-05-01T10:01:16.216Z,21.30
2023-05-01T10:03:45.155Z,21.40
2023-05-01T10:06:29.234Z,21.60
2023-05-01T10:08:57.856Z,21.60
2023-05-01T10:11:26.978Z,21.50
2023-05-01T10:14:08.393Z,21.60
2023-05-01T10:16:37.769Z,21.80
2023-05-01T10:19:06.486Z,22.10
2023-05-01T10:21:36.316Z,22.30
2023-05-01T10:24:05.769Z,22.40
2023-05-01T10:26:34.990Z,22.40
2023-05-01T10:29:04.369Z,22.30
2023-05-01T10:31:33.613Z,22.40
2023-05-01T10:34:02.692Z,22.50
2023-05-01T10:36:37.987Z,22.50
2023-05-01T10:39:06.384Z,22.30
2023-05-01T10:42:03.536Z,22.10
2023-05-01T10:44:32.195Z,22.50
2023-05-01T10:47:00.265Z,22.80
2023-05-01T10:50:05.030Z,22.90
2023-05-01T10:53:24.292Z,23.20
2023-05-01T10:55:52.606Z,23.00
2023-05-01T10:58:58.400Z,23.00
2023-05-01T11:01:34.383Z,23.00
2023-05-01T11:04:05.417Z,23.50
2023-05-01T11:06:33.934Z,23.10
2023-05-01T11:09:04.576Z,22.90
2023-05-01T11:11:49.914Z,22.70
2023-05-01T11:14:18.374Z,22.70
2023-05-01T11:16:48.809Z,22.60
2023-05-01T11:19:50.828Z,22.50
2023-05-01T11:22:19.875Z,22.20
2023-05-01T11:24:49.820Z,22.50
2023-05-01T11:27:18.327Z,22.50
2023-05-01T11:29:49.546Z,22.60
2023-05-01T11:32:27.085Z,22.70
2023-05-01T11:34:55.760Z,22.60
2023-05-01T11:37:42.406Z,22.20
2023-05-01T11:40:22.527Z,22.20
2023-05-01T11:42:51.954Z,22.30
2023-05-01T11:45:20.955Z,22.50
2023-05-01T11:47:49.685Z,22.50
2023-05-01T11:50:17.997Z,22.70
2023-05-01T11:52:49.333Z,22.80
2023-05-01T11:55:17.725Z,23.00
2023-05-01T11:57:51.628Z,23.00
2023-05-01T12:00:28.769Z,23.10
2023-05-01T12:03:01.764Z,22.90
2023-05-01T12:05:31.641Z,22.60
2023-05-01T12:08:18.387Z,22.50
2023-05-01T12:10:50.134Z,22.60
2023-05-01T12:13:19.952Z,22.60
2023-05-01T12:15:50.875Z,22.30
2023-05-01T12:18:21.323Z,22.40
2023-05-01T12:20:52.024Z,22.40
2023-05-01T12:23:21.278Z,22.60
2023-05-01T12:25:49.367Z,22.60
2023-05-01T12:28:20.832Z,22.60
2023-05-01T12:30:50.018Z,22.80
2023-05-01T12:33:19.550Z,22.70
2023-05-01T12:35:48.942Z,22.50
2023-05-01T12:38:18.750Z,22.60
2023-05-01T12:40:54.401Z,22.60
2023-05-01T12:43:31.813Z,22.80
2023-05-01T12:46:00.583Z,22.70
2023-05-01T12:48:28.997Z,22.60
2023-05-01T12:50:57.630Z,22.50
2023-05-01T12:53:27.181Z,22.20
2023-05-01T12:55:57.713Z,22.20
2023-05-01T12:58:36.488Z,22.20
2023-05-01T13:01:05.056Z,22.10
2023-05-01T13:03:37.032Z,21.90
2023-05-01T13:06:07.607Z,22.00
2023-05-01T13:08:39.377Z,22.00
2023-05-01T13:11:13.059Z,21.80
2023-05-01T13:13:44.118Z,21.50
2023-05-01T13:16:13.764Z,21.40
2023-05-01T13:18:47.397Z,21.40
2023-05-01T13:21:18.781Z,21.50
2023-05-01T13:23:54.805Z,21.30
2023-05-01T13:26:31.478Z,21.20
2023-05-01T13:29:03.167Z,21.10
2023-05-01T13:31:31.785Z,21.20
2023-05-01T13:34:01.029Z,21.40
2023-05-01T13:36:34.656Z,21.60
2023-05-01T13:39:03.380Z,21.70
2023-05-01T13:41:31.815Z,21.70
2023-05-01T13:44:02.554Z,21.80
2023-05-01T13:46:31.081Z,21.90
2023-05-01T13:49:05.199Z,21.80
2023-05-01T13:51:36.576Z,21.80
2023-05-01T13:54:07.475Z,21.80
2023-05-01T13:56:37.371Z,21.70
2023-05-01T13:59:07.433Z,21.60
2023-05-01T14:01:42.447Z,21.30
2023-05-01T14:04:11.780Z,21.10
2023-05-01T14:06:44.046Z,20.90
2023-05-01T14:09:12.429Z,20.60
2023-05-01T14:11:46.869Z,20.50
2023-05-01T14:14:19.240Z,20.50
2023-05-01T14:16:49.344Z,20.50
2023-05-01T14:19:18.753Z,20.80
2023-05-01T14:21:47.741Z,20.90
2023-05-01T14:24:18.383Z,20.70
2023-05-01T14:26:49.645Z,20.40
2023-05-01T14:29:24.852Z,20.20
2023-05-01T14:31:55.914Z,20.10
2023-05-01T14:34:26.843Z,20.10
2023-05-01T14:36:56.660Z,20.00
2023-05-01T14:39:25.129Z,20.10
2023-05-01T14:41:53.407Z,20.10
2023-05-01T14:44:27.523Z,20.00
2023-05-01T14:46:56.327Z,20.00
2023-05-01T14:49:26.023Z,20.00
2023-05-01T14:51:55.069Z,20.10
2023-05-01T14:54:23.515Z,20.30
2023-05-01T14:56:51.918Z,20.10
2023-05-01T14:59:20.189Z,20.20
2023-05-01T15:01:50.015Z,20.00
2023-05-01T15:04:18.526Z,20.00
2023-05-01T15:06:47.881Z,19.80
2023-05-01T15:09:16.351Z,19.60
2023-05-01T15:11:44.804Z,19.50
2023-05-01T15:14:13.150Z,19.40
2023-05-01T15:16:42.034Z,19.40
2023-05-01T15:19:11.584Z,19.40
2023-05-01T15:21:40.421Z,19.20
2023-05-01T15:24:08.507Z,19.20
2023-05-01T15:26:36.642Z,19.00
2023-05-01T15:29:04.717Z,18.90
2023-05-01T15:31:32.828Z,18.70
2023-05-01T15:34:01.631Z,18.50
2023-05-01T15:36:35.000Z,18.40
2023-05-01T15:39:06.024Z,18.40
2023-05-01T15:41:35.700Z,18.40
2023-05-01T15:44:05.934Z,18.20
2023-05-01T15:46:34.588Z,18.00
2023-05-01T15:49:03.155Z,18.00
2023-05-01T15:51:33.284Z,17.90
2023-05-01T15:54:02.597Z,17.80
2023-05-01T15:56:34.826Z,17.60
2023-05-01T15:59:04.084Z,17.40
2023-05-01T16:01:34.546Z,17.40
2023-05-01T16:04:04.149Z,17.30
2023-05-01T16:06:35.434Z,17.30
2023-05-01T16:09:05.334Z,17.20
2023-05-01T16:11:33.807Z,17.20
2023-05-01T16:14:02.351Z,17.10
2023-05-01T16:16:30.772Z,17.10
2023-05-01T16:19:00.472Z,17.00
2023-05-01T16:21:29.253Z,16.90
2023-05-01T16:23:58.726Z,16.70
2023-05-01T16:26:32.149Z,16.60
2023-05-01T16:29:02.661Z,16.40
2023-05-01T16:31:38.928Z,16.40
2023-05-01T16:34:07.472Z,16.40
2023-05-01T16:36:38.564Z,16.40
2023-05-01T16:39:10.269Z,16.30
2023-05-01T16:41:45.494Z,16.30
2023-05-01T16:44:14.362Z,16.20
2023-05-01T16:46:43.064Z,16.20
2023-05-01T16:49:13.638Z,16.10
2023-05-01T16:51:42.598Z,16.00
2023-05-01T16:54:12.845Z,15.90
2023-05-01T16:56:41.191Z,15.90
2023-05-01T16:59:10.770Z,15.80
2023-05-01T17:01:38.959Z,15.90
2023-05-01T17:04:07.554Z,15.70
2023-05-01T17:06:36.244Z,15.70
2023-05-01T17:09:07.259Z,15.60
2023-05-01T17:11:36.873Z,15.60
2023-05-01T17:14:05.146Z,15.50
2023-05-01T17:16:35.014Z,15.50
2023-05-01T17:19:08.763Z,15.40
2023-05-01T17:21:36.964Z,15.30
2023-05-01T17:24:05.435Z,15.20
2023-05-01T17:26:33.534Z,15.10
2023-05-01T17:29:04.156Z,15.10
2023-05-01T17:31:32.601Z,15.00
2023-05-01T17:34:01.027Z,15.00
2023-05-01T17:36:29.470Z,14.90
2023-05-01T17:38:57.724Z,14.90
2023-05-01T17:41:27.243Z,14.80
2023-05-01T17:43:55.323Z,14.80
2023-05-01T17:46:25.289Z,14.70
2023-05-01T17:48:53.551Z,14.70
2023-05-01T17:51:21.682Z,14.70
2023-05-01T17:53:49.875Z,14.70
2023-05-01T17:56:18.799Z,14.60
2023-05-01T17:58:47.130Z,14.50
2023-05-01T18:01:15.626Z,14.50
2023-05-01T18:03:45.338Z,14.50
2023-05-01T18:06:13.559Z,14.40
2023-05-01T18:08:45.919Z,14.40
2023-05-01T18:11:14.107Z,14.40
2023-05-01T18:13:43.781Z,14.40
2023-05-01T18:16:12.358Z,14.30
2023-05-01T18:18:40.622Z,14.20
2023-05-01T18:21:10.141Z,14.20
2023-05-01T18:23:38.343Z,14.20
2023-05-01T18:26:09.168Z,14.10
2023-05-01T18:28:37.371Z,14.10
2023-05-01T18:31:05.606Z,14.00
2023-05-01T18:33:34.123Z,14.00
2023-05-01T18:36:02.350Z,13.90
2023-05-01T18:38:31.871Z,13.90
2023-05-01T18:40:59.933Z,13.90
2023-05-01T18:43:28.022Z,13.90
2023-05-01T18:45:56.146Z,13.90
2023-05-01T18:48:24.389Z,14.00
2023-05-01T18:51:07.237Z,14.10
2023-05-01T18:53:37.777Z,14.20
2023-05-01T18:56:09.434Z,14.30
2023-05-01T18:58:37.656Z,14.40
2023-05-01T19:01:06.023Z,14.30
2023-05-01T19:03:34.151Z,14.30
2023-05-01T19:06:02.480Z,14.50
2023-05-01T19:08:31.536Z,14.50
2023-05-01T19:11:00.973Z,14.50
2023-05-01T19:13:29.110Z,14.40
2023-05-01T19:15:57.207Z,14.30
2023-05-01T19:18:25.370Z,14.20
2023-05-01T19:20:53.471Z,14.30
2023-05-01T19:23:21.560Z,14.10
2023-05-01T19:25:50.721Z,13.90
2023-05-01T19:28:20.180Z,13.90
2023-05-01T19:30:48.471Z,14.10
2023-05-01T19:33:16.695Z,13.80
2023-05-01T19:35:44.883Z,13.60
2023-05-01T19:38:12.940Z,13.40
2023-05-01T19:40:42.358Z,13.20
2023-05-01T19:43:10.447Z,13.20
2023-05-01T19:45:39.964Z,13.30
2023-05-01T19:48:08.481Z,13.30
2023-05-01T19:50:37.911Z,13.60
2023-05-01T19:53:06.263Z,13.70
2023-05-01T19:55:34.407Z,13.90
2023-05-01T19:58:03.460Z,13.90
2023-05-01T20:00:31.556Z,14.00
2023-05-01T20:03:01.063Z,13.90
2023-05-01T20:05:31.230Z,13.80
2023-05-01T20:08:00.946Z,13.90
2023-05-01T20:10:29.299Z,13.50
2023-05-01T20:12:57.568Z,13.60
2023-05-01T20:15:25.895Z,13.70
2023-05-01T20:17:54.077Z,13.60
2023-05-01T20:20:23.695Z,13.60
2023-05-01T20:22:53.089Z,13.80
2023-05-01T20:25:21.320Z,13.80
2023-05-01T20:27:49.431Z,13.60
2023-05-01T20:30:19.566Z,13.70
2023-05-01T20:32:51.461Z,13.90
2023-05-01T20:35:19.603Z,14.00
2023-05-01T20:37:49.117Z,14.00
2023-05-01T20:40:19.554Z,13.90
2023-05-01T20:42:47.672Z,13.60
2023-05-01T20:45:16.112Z,13.50
2023-05-01T20:47:44.397Z,13.70
2023-05-01T20:50:12.859Z,13.80
2023-05-01T20:52:41.168Z,13.80
2023-05-01T20:55:11.964Z,14.00
2023-05-01T20:57:41.172Z,13.80
2023-05-01T21:00:10.764Z,13.90
2023-05-01T21:02:40.343Z,13.90
2023-05-01T21:05:10.289Z,13.70
2023-05-01T21:07:40.354Z,13.50
2023-05-01T21:10:14.917Z,13.20
2023-05-01T21:12:43.723Z,13.10
2023-05-01T21:15:12.913Z,12.90
2023-05-01T21:17:43.444Z,12.70
2023-05-01T21:20:15.678Z,12.60
2023-05-01T21:22:45.792Z,12.50
2023-05-01T21:25:16.598Z,12.60
2023-05-01T21:27:44.950Z,12.60
2023-05-01T21:30:16.962Z,12.70
2023-05-01T21:32:45.510Z,12.70
2023-05-01T21:35:17.373Z,12.70
2023-05-01T21:37:46.979Z,12.80
2023-05-01T21:40:17.104Z,12.90
2023-05-01T21:42:45.372Z,12.70
2023-05-01T21:45:15.592Z,12.70
2023-05-01T21:47:46.309Z,12.70
2023-05-01T21:50:15.862Z,12.80
2023-05-01T21:52:45.230Z,12.70
2023-05-01T21:55:21.591Z,12.60
2023-05-01T21:57:50.591Z,12.70
2023-05-01T22:00:19.973Z,12.70
2023-05-01T22:02:50.214Z,12.70
2023-05-01T22:05:22.300Z,12.70
2023-05-01T22:07:52.363Z,12.70
2023-05-01T22:10:21.870Z,12.80
2023-05-01T22:12:50.341Z,12.70
2023-05-01T22:15:18.449Z,12.80
2023-05-01T22:17:46.961Z,12.60
2023-05-01T22:20:15.091Z,12.60
2023-05-01T22:22:43.790Z,12.40
2023-05-01T22:25:13.115Z,12.30
2023-05-01T22:27:42.562Z,12.20
2023-05-01T22:30:11.686Z,12.20
2023-05-01T22:32:39.826Z,12.10
2023-05-01T22:35:08.887Z,12.10
2023-05-01T22:37:36.984Z,12.20
2023-05-01T22:40:08.974Z,12.10
2023-05-01T22:42:37.083Z,12.30
2023-05-01T22:45:08.534Z,12.20
2023-05-01T22:47:36.638Z,12.20
2023-05-01T22:50:04.964Z,12.00
2023-05-01T22:52:33.072Z,12.10
2023-05-01T22:55:01.329Z,12.20
2023-05-01T22:57:29.461Z,12.10
2023-05-01T22:59:57.618Z,12.00
2023-05-01T23:02:27.865Z,12.10
2023-05-01T23:04:56.037Z,12.10
2023-05-01T23:07:24.180Z,12.00
2023-05-01T23:09:52.368Z,12.00
2023-05-01T23:12:23.126Z,12.00
2023-05-01T23:14:51.207Z,11.90
2023-05-01T23:17:21.583Z,11.90
2023-05-01T23:19:51.456Z,11.80
2023-05-01T23:22:20.268Z,11.90
2023-05-01T23:24:49.787Z,11.80
2023-05-01T23:27:19.098Z,11.70
2023-05-01T23:29:59.039Z,11.70
2023-05-01T23:32:29.328Z,11.70
2023-05-01T23:35:05.876Z,11.70
2023-05-01T23:37:34.005Z,11.70
2023-05-01T23:40:02.498Z,11.60
2023-05-01T23:42:30.964Z,11.70
2023-05-01T23:44:59.143Z,11.60
2023-05-01T23:47:27.707Z,11.60
2023-05-01T23:49:58.509Z,11.60
2023-05-01T23:52:28.297Z,11.60
2023-05-01T23:54:56.481Z,11.70
2023-05-01T23:57:24.920Z,11.70
2023-05-01T23:59:53.046Z,11.70
